Time;durP1;ratioP1;P1;durP2;ratioP2;P2;SDS_P1;SDS_P2;PMS_P1;PMS_P2;Temp;Humidity;BMP_temperature;BMP_pressure;BME280_temperature;BME280_humidity;BME280_pressure;Samples;Min_cycle;Max_cycle;Signal;HPM_P1;HPM_P2
2023/10/29 00:00:09;;;;;;;6.30;5.50;;;9.40;99.90;;;;;;5084625;27;20211;-52
2023/10/29 00:02:39;;;;;;;5.63;5.13;;;9.40;99.90;;;;;;5101960;27;20213;-48
2023/10/29 00:05:07;;;;;;;9.30;5.17;;;9.40;99.90;;;;;;5102433;27;20192;-46
2023/10/29 00:07:34;;;;;;;6.37;5.73;;;9.40;99.90;;;;;;5090137;28;20943;-48
2023/10/29 00:10:01;;;;;;;9.10;5.40;;;9.40;99.90;;;;;;5098660;27;20216;-46
2023/10/29 00:12:29;;;;;;;11.50;6.23;;;9.50;99.90;;;;;;5095423;28;20772;-49
2023/10/29 00:14:56;;;;;;;9.70;5.93;;;9.50;99.90;;;;;;5104381;27;20212;-48
2023/10/29 00:17:22;;;;;;;7.10;5.60;;;9.50;99.90;;;;;;5087943;27;20241;-51
2023/10/29 00:19:50;;;;;;;10.97;6.10;;;9.40;99.90;;;;;;5105759;27;20236;-48
2023/10/29 00:22:17;;;;;;;7.30;5.03;;;9.50;99.90;;;;;;5104600;27;20243;-53
2023/10/29 00:24:44;;;;;;;8.73;6.50;;;9.40;99.90;;;;;;5103564;27;20209;-46
2023/10/29 00:27:12;;;;;;;10.10;5.90;;;9.50;99.90;;;;;;5109911;27;20208;-51
2023/10/29 00:29:41;;;;;;;9.03;5.63;;;9.50;99.90;;;;;;5100473;28;20189;-47
2023/10/29 00:32:08;;;;;;;6.80;5.10;;;9.50;99.90;;;;;;5077476;27;20197;-50
2023/10/29 00:34:35;;;;;;;10.00;5.67;;;9.50;99.90;;;;;;5099307;28;20200;-46
2023/10/29 00:37:02;;;;;;;6.40;5.23;;;9.50;99.90;;;;;;5103563;27;20225;-46
2023/10/29 00:39:29;;;;;;;10.13;5.13;;;9.50;99.90;;;;;;5092050;27;20408;-49
2023/10/29 00:41:57;;;;;;;6.77;5.23;;;9.50;99.90;;;;;;5103361;27;20694;-46
2023/10/29 00:44:24;;;;;;;6.17;5.57;;;9.50;99.90;;;;;;5100109;28;20285;-46
2023/10/29 00:46:53;;;;;;;8.17;5.30;;;9.50;99.90;;;;;;5078567;28;20213;-46
2023/10/29 00:49:20;;;;;;;10.50;5.70;;;9.50;99.90;;;;;;5100432;27;20205;-49
2023/10/29 00:51:47;;;;;;;5.37;4.33;;;9.50;99.90;;;;;;5115025;27;20204;-47
2023/10/29 00:54:14;;;;;;;7.93;5.37;;;9.50;99.90;;;;;;5091932;27;20718;-50
2023/10/29 00:56:41;;;;;;;8.37;5.27;;;9.40;99.90;;;;;;5102046;27;21026;-47
2023/10/29 00:59:11;;;;;;;8.60;4.87;;;9.40;99.90;;;;;;5097075;27;20181;-50
2023/10/29 01:01:38;;;;;;;9.10;5.30;;;9.50;99.90;;;;;;5071000;28;20241;-50
2023/10/29 01:04:06;;;;;;;5.77;5.07;;;9.40;99.90;;;;;;5110063;27;20348;-47
2023/10/29 01:06:38;;;;;;;5.33;4.83;;;9.50;99.90;;;;;;5101652;28;20189;-49
2023/10/29 01:09:05;;;;;;;6.40;4.97;;;9.50;99.90;;;;;;5088845;28;20213;-46
2023/10/29 01:11:32;;;;;;;7.77;4.87;;;9.40;99.90;;;;;;5099371;27;20602;-50
2023/10/29 01:13:59;;;;;;;5.87;4.80;;;9.40;99.90;;;;;;5100483;27;20296;-45
2023/10/29 01:16:28;;;;;;;5.60;4.87;;;9.40;99.90;;;;;;5110002;27;20213;-48
2023/10/29 01:18:56;;;;;;;7.63;5.10;;;9.40;99.90;;;;;;5082940;27;20189;-46
2023/10/29 01:21:24;;;;;;;7.03;4.70;;;9.40;99.90;;;;;;5092031;28;20823;-45
2023/10/29 01:23:52;;;;;;;10.33;5.50;;;9.50;99.90;;;;;;5096077;28;20278;-46
2023/10/29 01:26:20;;;;;;;5.07;4.33;;;9.50;99.90;;;;;;5091940;28;20292;-49
2023/10/29 01:28:47;;;;;;;10.73;5.17;;;9.50;99.90;;;;;;5101173;28;20209;-48
2023/10/29 01:31:14;;;;;;;7.03;5.23;;;9.50;99.90;;;;;;5098374;28;20200;-49
2023/10/29 01:33:41;;;;;;;7.03;4.30;;;9.50;99.90;;;;;;5081907;28;20232;-46
2023/10/29 01:36:08;;;;;;;7.93;5.27;;;9.50;99.90;;;;;;5097157;28;20197;-49
2023/10/29 01:38:36;;;;;;;5.87;4.83;;;9.60;99.90;;;;;;5103136;28;20209;-48
2023/10/29 01:41:03;;;;;;;7.53;4.60;;;9.60;99.90;;;;;;5094485;28;20208;-49
2023/10/29 01:43:30;;;;;;;5.13;4.67;;;9.60;99.90;;;;;;5100843;28;20289;-49
2023/10/29 01:45:57;;;;;;;8.50;4.37;;;9.50;99.90;;;;;;5101510;28;20198;-49
2023/10/29 01:48:24;;;;;;;6.67;4.20;;;9.60;99.90;;;;;;5078792;28;20205;-46
2023/10/29 01:50:51;;;;;;;5.60;4.33;;;9.60;99.90;;;;;;5107865;28;20193;-49
2023/10/29 01:53:19;;;;;;;6.40;4.43;;;9.60;99.90;;;;;;5107054;28;20265;-46
2023/10/29 01:55:47;;;;;;;6.97;4.53;;;9.60;99.90;;;;;;5102589;28;20205;-46
2023/10/29 01:58:14;;;;;;;7.20;3.90;;;9.60;99.90;;;;;;5097165;28;20217;-47
2023/10/29 02:00:41;;;;;;;6.27;3.97;;;9.60;99.90;;;;;;5100645;28;20193;-45
2023/10/29 02:03:08;;;;;;;5.93;4.10;;;9.60;99.90;;;;;;5099738;28;20224;-50
2023/10/29 02:05:35;;;;;;;7.10;4.20;;;9.70;99.90;;;;;;5080615;28;20212;-45
2023/10/29 02:08:02;;;;;;;10.77;4.30;;;9.70;99.90;;;;;;5100935;28;20647;-48
2023/10/29 02:10:29;;;;;;;5.53;3.83;;;9.70;99.90;;;;;;5092802;28;20215;-47
2023/10/29 02:12:58;;;;;;;5.40;3.63;;;9.70;99.90;;;;;;5105345;28;20270;-50
2023/10/29 02:15:25;;;;;;;5.00;4.00;;;9.70;99.90;;;;;;5101250;28;20667;-47
2023/10/29 02:17:52;;;;;;;5.70;3.70;;;9.80;99.90;;;;;;5106523;27;20220;-45
2023/10/29 02:20:18;;;;;;;6.90;3.47;;;9.70;99.90;;;;;;5081997;27;20205;-48
2023/10/29 02:22:48;;;;;;;5.73;4.00;;;9.80;99.90;;;;;;5105776;28;20229;-47
2023/10/29 02:25:15;;;;;;;6.37;3.60;;;9.80;99.90;;;;;;5095014;28;20254;-48
2023/10/29 02:27:43;;;;;;;5.67;3.70;;;9.80;99.90;;;;;;5103708;27;20565;-48
2023/10/29 02:30:12;;;;;;;4.83;3.33;;;9.80;99.90;;;;;;5104122;27;20190;-48
2023/10/29 02:32:39;;;;;;;3.80;3.43;;;9.80;99.90;;;;;;5104425;28;20228;-46
2023/10/29 02:35:07;;;;;;;6.63;3.40;;;9.80;99.90;;;;;;5091470;27;20205;-51
2023/10/29 02:37:34;;;;;;;6.23;3.40;;;9.90;99.90;;;;;;5102456;27;20223;-48
2023/10/29 02:40:03;;;;;;;6.83;3.70;;;9.80;99.90;;;;;;5101959;27;20197;-51
2023/10/29 02:42:30;;;;;;;5.73;3.70;;;9.80;99.90;;;;;;5100802;28;20220;-48
2023/10/29 02:44:58;;;;;;;9.37;3.67;;;9.90;99.90;;;;;;5101594;27;20197;-48
2023/10/29 02:47:25;;;;;;;6.40;3.60;;;9.90;99.90;;;;;;5103737;27;20190;-49
2023/10/29 02:49:52;;;;;;;3.80;3.23;;;9.90;99.90;;;;;;5106057;27;20212;-49
2023/10/29 02:52:19;;;;;;;4.40;2.97;;;9.90;99.90;;;;;;5084581;27;20209;-46
2023/10/29 02:54:46;;;;;;;4.50;3.03;;;9.90;99.90;;;;;;5109982;27;20213;-46
2023/10/29 02:57:15;;;;;;;6.20;2.77;;;10.00;99.90;;;;;;5090730;27;20691;-47
2023/10/29 02:59:42;;;;;;;5.03;3.07;;;10.00;99.90;;;;;;5110838;27;20205;-45
2023/10/29 03:02:09;;;;;;;5.60;2.97;;;10.00;99.90;;;;;;5101144;28;20221;-46
2023/10/29 03:04:36;;;;;;;4.83;3.00;;;10.00;99.90;;;;;;5103878;28;20193;-45
2023/10/29 03:07:03;;;;;;;6.00;2.80;;;10.00;99.90;;;;;;5083441;27;20596;-50
2023/10/29 03:09:29;;;;;;;6.27;3.40;;;10.00;99.90;;;;;;5108351;27;20181;-46
2023/10/29 03:11:56;;;;;;;6.30;3.00;;;10.00;99.90;;;;;;5094809;28;20665;-49
2023/10/29 03:14:25;;;;;;;5.30;2.67;;;10.10;99.90;;;;;;5102389;28;20189;-46
2023/10/29 03:16:52;;;;;;;5.77;3.30;;;10.10;99.90;;;;;;5105026;27;20254;-48
2023/10/29 03:19:19;;;;;;;5.13;2.90;;;10.10;99.90;;;;;;5103232;27;20197;-50
2023/10/29 03:21:47;;;;;;;5.57;3.13;;;10.10;99.90;;;;;;5105089;28;20255;-48
2023/10/29 03:24:15;;;;;;;5.10;3.80;;;10.10;99.90;;;;;;5080937;27;20255;-52
2023/10/29 03:26:44;;;;;;;3.83;2.67;;;10.10;99.90;;;;;;5098330;27;20197;-48
2023/10/29 03:29:11;;;;;;;7.30;3.33;;;10.10;99.90;;;;;;5099793;28;20289;-49
2023/10/29 03:31:39;;;;;;;4.70;3.77;;;10.10;99.90;;;;;;5096872;27;20671;-51
2023/10/29 03:34:07;;;;;;;3.43;3.10;;;10.10;99.90;;;;;;5100385;28;20208;-49
2023/10/29 03:36:34;;;;;;;5.57;3.40;;;10.20;99.90;;;;;;5102372;27;20194;-45
2023/10/29 03:39:01;;;;;;;5.60;3.30;;;10.20;99.90;;;;;;5077547;27;20217;-49
2023/10/29 03:41:29;;;;;;;2.70;2.50;;;10.20;99.90;;;;;;5097365;27;20195;-48
2023/10/29 03:43:56;;;;;;;5.47;2.87;;;10.20;99.90;;;;;;5093718;28;20221;-50
2023/10/29 03:46:24;;;;;;;7.33;3.10;;;10.20;99.90;;;;;;5098800;28;20181;-47
2023/10/29 03:48:53;;;;;;;4.60;2.87;;;10.20;99.90;;;;;;5099780;28;20563;-48
2023/10/29 03:51:20;;;;;;;3.20;2.90;;;10.20;99.90;;;;;;5096774;27;20201;-53
2023/10/29 03:53:47;;;;;;;5.93;2.83;;;10.20;99.90;;;;;;5080031;27;20307;-50
2023/10/29 03:56:13;;;;;;;11.67;2.97;;;10.20;99.90;;;;;;5101238;27;20189;-50
2023/10/29 03:58:40;;;;;;;4.37;2.73;;;10.20;99.90;;;;;;5099108;27;20209;-49
2023/10/29 04:01:07;;;;;;;4.00;2.70;;;10.20;99.90;;;;;;5102049;27;20246;-50
2023/10/29 04:03:34;;;;;;;4.10;2.50;;;10.20;99.90;;;;;;5096316;28;20216;-52
2023/10/29 04:06:09;;;;;;;3.57;2.37;;;10.20;99.90;;;;;;5103247;27;20628;-51
2023/10/29 04:08:36;;;;;;;4.10;2.37;;;10.20;99.90;;;;;;5085948;27;20204;-51
2023/10/29 04:11:04;;;;;;;2.53;2.33;;;10.20;99.90;;;;;;5102821;28;20189;-52
2023/10/29 04:13:31;;;;;;;3.33;2.30;;;10.20;99.90;;;;;;5093734;28;20359;-49
2023/10/29 04:15:58;;;;;;;3.80;2.23;;;10.20;99.90;;;;;;5103798;27;20198;-48
2023/10/29 04:18:27;;;;;;;4.40;2.60;;;10.20;99.90;;;;;;5103955;27;20217;-50
2023/10/29 04:20:54;;;;;;;2.10;1.90;;;10.20;99.90;;;;;;5103723;28;20240;-48
2023/10/29 04:23:23;;;;;;;2.60;2.37;;;10.30;99.90;;;;;;5080373;27;20944;-47
2023/10/29 04:25:50;;;;;;;3.83;2.20;;;10.30;99.90;;;;;;5113571;27;20204;-46
2023/10/29 04:28:17;;;;;;;2.83;2.10;;;10.30;99.90;;;;;;5094239;28;20270;-47
2023/10/29 04:30:44;;;;;;;2.40;2.20;;;10.30;99.90;;;;;;5110857;27;20189;-46
2023/10/29 04:33:11;;;;;;;2.23;2.13;;;10.30;99.90;;;;;;5102887;27;20233;-51
2023/10/29 04:35:38;;;;;;;3.43;2.20;;;10.40;99.90;;;;;;5104492;27;20617;-48
2023/10/29 04:38:05;;;;;;;3.20;2.10;;;10.40;99.90;;;;;;5092294;27;20556;-50
2023/10/29 04:40:33;;;;;;;2.67;2.47;;;10.40;99.90;;;;;;5098225;27;20192;-49
2023/10/29 04:43:00;;;;;;;2.63;2.47;;;10.40;99.90;;;;;;5105648;27;20236;-51
2023/10/29 04:45:27;;;;;;;3.47;2.60;;;10.40;99.90;;;;;;5097868;27;20197;-46
2023/10/29 04:47:53;;;;;;;4.40;2.57;;;10.40;99.90;;;;;;5106996;27;20268;-50
2023/10/29 04:50:20;;;;;;;5.03;3.00;;;10.50;99.90;;;;;;5104354;27;20264;-50
2023/10/29 04:52:47;;;;;;;4.80;2.73;;;10.50;99.90;;;;;;5103720;27;21209;-47
2023/10/29 04:55:14;;;;;;;2.83;2.63;;;10.50;99.90;;;;;;5078656;27;20200;-51
2023/10/29 04:57:42;;;;;;;6.00;2.57;;;10.50;99.90;;;;;;5104736;27;20768;-46
2023/10/29 05:00:10;;;;;;;3.30;3.00;;;10.50;99.90;;;;;;5089373;28;20205;-49
2023/10/29 05:02:37;;;;;;;5.07;2.80;;;10.50;99.90;;;;;;5102137;28;20225;-46
2023/10/29 05:05:06;;;;;;;2.43;2.23;;;10.60;99.90;;;;;;5104068;27;20243;-49
2023/10/29 05:07:33;;;;;;;3.70;2.83;;;10.60;99.90;;;;;;5095798;28;20200;-50
2023/10/29 05:10:00;;;;;;;5.17;3.20;;;10.60;99.90;;;;;;5083775;27;20582;-48
2023/10/29 05:12:27;;;;;;;3.80;2.77;;;10.60;99.90;;;;;;5107638;27;20310;-46
2023/10/29 05:14:55;;;;;;;4.63;3.00;;;10.60;99.90;;;;;;5102199;28;20197;-47
2023/10/29 05:17:22;;;;;;;2.93;2.73;;;10.60;99.90;;;;;;5094285;28;20946;-48
2023/10/29 05:19:49;;;;;;;5.70;3.37;;;10.60;99.90;;;;;;5102917;28;20273;-51
2023/10/29 05:22:16;;;;;;;6.20;3.10;;;10.70;99.90;;;;;;5097890;27;20192;-48
2023/10/29 05:24:42;;;;;;;6.57;3.03;;;10.70;99.90;;;;;;5085455;27;20259;-47
2023/10/29 05:27:09;;;;;;;6.33;3.23;;;10.70;99.90;;;;;;5098999;28;20189;-48
2023/10/29 05:29:36;;;;;;;7.50;3.17;;;10.60;99.90;;;;;;5109922;28;20189;-47
2023/10/29 05:32:05;;;;;;;3.13;2.57;;;10.60;99.90;;;;;;5094586;28;20209;-49
2023/10/29 05:34:32;;;;;;;3.03;2.80;;;10.70;99.90;;;;;;5101737;28;20951;-46
2023/10/29 05:36:59;;;;;;;3.00;2.73;;;10.70;99.90;;;;;;5094559;28;20209;-50
2023/10/29 05:39:25;;;;;;;3.27;2.97;;;10.70;99.90;;;;;;5079978;28;20213;-48
2023/10/29 05:41:53;;;;;;;10.67;3.10;;;10.70;99.90;;;;;;5098817;28;20193;-47
2023/10/29 05:44:20;;;;;;;3.40;3.10;;;10.70;99.90;;;;;;5095296;28;20205;-46
2023/10/29 05:46:47;;;;;;;5.47;2.80;;;10.70;99.90;;;;;;5102559;28;20250;-46
2023/10/29 05:49:15;;;;;;;3.73;3.00;;;10.70;99.90;;;;;;5103222;28;20200;-47
2023/10/29 05:51:43;;;;;;;4.60;2.67;;;10.80;99.90;;;;;;5104886;27;20611;-48
2023/10/29 05:54:10;;;;;;;5.27;3.53;;;10.80;99.90;;;;;;5097970;27;20227;-50
2023/10/29 05:56:37;;;;;;;5.23;2.80;;;10.80;99.90;;;;;;5091319;27;20201;-48
2023/10/29 05:59:04;;;;;;;3.90;2.33;;;10.80;99.90;;;;;;5103643;27;20714;-48
2023/10/29 06:01:31;;;;;;;4.83;2.57;;;10.80;99.90;;;;;;5099766;28;20555;-47
2023/10/29 06:03:58;;;;;;;3.60;2.20;;;10.80;99.90;;;;;;5099917;27;20213;-50
2023/10/29 06:06:26;;;;;;;5.20;2.60;;;10.80;99.90;;;;;;5104692;27;20258;-47
2023/10/29 06:08:52;;;;;;;2.73;2.17;;;10.80;99.90;;;;;;5093777;28;20230;-52
2023/10/29 06:11:22;;;;;;;4.53;2.47;;;10.80;99.90;;;;;;5075140;27;20209;-47
2023/10/29 06:13:53;;;;;;;4.33;2.47;;;10.80;99.90;;;;;;5090080;28;20241;-46
2023/10/29 06:16:20;;;;;;;3.83;2.50;;;10.80;99.90;;;;;;5096315;27;20204;-47
2023/10/29 06:18:47;;;;;;;4.83;2.23;;;10.90;99.90;;;;;;5100871;27;20213;-45
2023/10/29 06:21:14;;;;;;;3.00;2.47;;;10.90;99.90;;;;;;5096554;28;20206;-49
2023/10/29 06:23:42;;;;;;;2.60;2.40;;;10.90;99.90;;;;;;5095302;28;20233;-48
2023/10/29 06:26:09;;;;;;;3.17;2.50;;;10.90;99.90;;;;;;5097612;27;20236;-47
2023/10/29 06:28:37;;;;;;;3.53;2.03;;;10.90;99.90;;;;;;5085513;28;20193;-46
2023/10/29 06:31:04;;;;;;;3.23;1.90;;;10.90;99.90;;;;;;5096846;28;20216;-49
2023/10/29 06:33:31;;;;;;;5.07;2.13;;;11.00;99.90;;;;;;5091196;28;20864;-50
2023/10/29 06:36:00;;;;;;;3.87;2.03;;;11.00;99.90;;;;;;5089159;27;20810;-49
2023/10/29 06:38:26;;;;;;;2.37;1.90;;;11.00;99.90;;;;;;5101477;27;20216;-50
2023/10/29 06:40:55;;;;;;;3.90;2.57;;;11.00;99.90;;;;;;5096792;28;20221;-51
2023/10/29 06:43:22;;;;;;;2.00;1.90;;;11.00;99.90;;;;;;5094875;27;20639;-46
2023/10/29 06:45:49;;;;;;;6.23;2.27;;;11.00;99.90;;;;;;5103421;27;20196;-50
2023/10/29 06:48:15;;;;;;;2.97;1.90;;;11.10;99.90;;;;;;5109059;27;20203;-46
2023/10/29 06:50:43;;;;;;;5.17;2.03;;;11.10;99.90;;;;;;5099776;27;20254;-50
2023/10/29 06:53:10;;;;;;;2.47;2.10;;;11.10;99.90;;;;;;5120950;27;20584;-48
2023/10/29 06:55:37;;;;;;;2.20;1.97;;;11.20;99.90;;;;;;5093526;28;20672;-48
2023/10/29 06:58:05;;;;;;;2.37;1.87;;;11.20;99.90;;;;;;5091585;27;20212;-46
2023/10/29 07:00:32;;;;;;;4.80;1.70;;;11.20;99.90;;;;;;5102619;28;20679;-52
2023/10/29 07:03:00;;;;;;;4.80;1.60;;;11.20;99.90;;;;;;5094573;28;20219;-48
2023/10/29 07:05:27;;;;;;;2.47;1.90;;;11.20;99.90;;;;;;5099878;28;20199;-50
2023/10/29 07:07:54;;;;;;;4.87;1.70;;;11.30;99.90;;;;;;5096073;28;20185;-47
2023/10/29 07:10:21;;;;;;;3.77;1.50;;;11.30;99.90;;;;;;5103974;27;20194;-46
2023/10/29 07:12:48;;;;;;;1.90;1.70;;;11.30;99.90;;;;;;5105354;27;20212;-47
2023/10/29 07:15:16;;;;;;;2.17;1.97;;;11.30;99.90;;;;;;5093291;28;20676;-47
2023/10/29 07:17:43;;;;;;;3.43;1.67;;;11.30;99.90;;;;;;5098744;27;20683;-47
2023/10/29 07:20:12;;;;;;;2.93;1.80;;;11.40;99.90;;;;;;5100308;27;20276;-49
2023/10/29 07:22:38;;;;;;;3.47;1.67;;;11.40;99.90;;;;;;5095514;27;20622;-49
2023/10/29 07:25:06;;;;;;;2.33;1.57;;;11.40;99.90;;;;;;5112058;27;20239;-47
2023/10/29 07:27:33;;;;;;;4.97;1.30;;;11.40;99.90;;;;;;5096291;27;20213;-49
2023/10/29 07:30:00;;;;;;;2.00;1.80;;;11.40;99.90;;;;;;5095671;27;20236;-48
2023/10/29 07:32:28;;;;;;;3.40;1.63;;;11.50;99.90;;;;;;5103685;27;20216;-53
2023/10/29 07:34:55;;;;;;;2.00;1.80;;;11.50;99.90;;;;;;5099088;27;20250;-49
2023/10/29 07:37:22;;;;;;;1.80;1.50;;;11.50;99.90;;;;;;5095470;28;20205;-48
2023/10/29 07:39:49;;;;;;;3.20;1.20;;;11.60;99.90;;;;;;5097383;28;20225;-48
2023/10/29 07:42:15;;;;;;;2.03;1.33;;;11.60;99.90;;;;;;5096077;27;20236;-46
2023/10/29 07:44:42;;;;;;;2.03;1.40;;;11.60;99.90;;;;;;5098847;28;20190;-53
2023/10/29 07:47:10;;;;;;;3.10;1.20;;;11.70;99.90;;;;;;5079414;27;20690;-47
2023/10/29 07:49:38;;;;;;;2.40;1.10;;;11.70;99.90;;;;;;5095270;27;20189;-48
2023/10/29 07:52:06;;;;;;;3.47;1.33;;;11.80;99.90;;;;;;5089731;27;20569;-49
2023/10/29 07:54:33;;;;;;;1.90;1.20;;;11.80;99.90;;;;;;5083277;28;20208;-48
2023/10/29 07:57:00;;;;;;;1.77;1.10;;;11.80;99.90;;;;;;5091571;28;20896;-45
2023/10/29 07:59:28;;;;;;;2.50;0.87;;;11.80;99.90;;;;;;5087242;27;20217;-50
2023/10/29 08:01:54;;;;;;;0.83;0.80;;;11.90;99.90;;;;;;5064916;27;24888;-47
2023/10/29 08:04:21;;;;;;;1.30;0.70;;;11.90;99.90;;;;;;5112314;27;20307;-48
2023/10/29 08:06:49;;;;;;;2.10;1.23;;;11.90;99.90;;;;;;5080935;27;20282;-48
2023/10/29 08:09:16;;;;;;;1.00;0.90;;;11.90;99.90;;;;;;5094901;27;20224;-46
2023/10/29 08:11:43;;;;;;;1.00;0.90;;;12.00;99.90;;;;;;5092675;27;20282;-47
2023/10/29 08:14:10;;;;;;;2.83;1.07;;;12.00;99.90;;;;;;5089848;27;20231;-46
2023/10/29 08:16:37;;;;;;;1.50;0.83;;;12.00;99.90;;;;;;5092333;28;20194;-49
2023/10/29 08:19:05;;;;;;;2.13;1.07;;;12.00;99.90;;;;;;5065845;27;20708;-46
2023/10/29 08:21:32;;;;;;;1.13;0.90;;;12.00;99.90;;;;;;5095627;28;20716;-49
2023/10/29 08:24:00;;;;;;;1.00;0.80;;;12.00;99.90;;;;;;5094609;28;20217;-47
2023/10/29 08:26:28;;;;;;;0.90;0.80;;;12.00;99.90;;;;;;5082663;27;20280;-50
2023/10/29 08:28:55;;;;;;;1.50;0.97;;;12.00;99.90;;;;;;5080981;27;20193;-48
2023/10/29 08:31:22;;;;;;;2.80;1.20;;;12.10;99.90;;;;;;5099410;28;20251;-48
2023/10/29 08:33:49;;;;;;;1.53;1.43;;;12.10;99.90;;;;;;5053414;28;20237;-50
2023/10/29 08:36:16;;;;;;;1.00;0.90;;;12.10;99.90;;;;;;5104439;27;20775;-50
2023/10/29 08:38:43;;;;;;;3.17;0.80;;;12.20;99.90;;;;;;5099319;27;20216;-48
2023/10/29 08:41:15;;;;;;;1.97;0.90;;;12.30;99.90;;;;;;5084559;27;20278;-49
2023/10/29 08:43:42;;;;;;;1.80;0.83;;;12.50;99.90;;;;;;5089242;28;20218;-51
2023/10/29 08:46:09;;;;;;;0.80;0.80;;;12.60;99.90;;;;;;5099485;27;20204;-50
2023/10/29 08:48:36;;;;;;;2.23;1.03;;;12.70;99.90;;;;;;5074850;27;20200;-48
2023/10/29 08:51:04;;;;;;;1.53;0.80;;;12.70;99.90;;;;;;5095740;28;20204;-49
2023/10/29 08:53:30;;;;;;;2.27;0.97;;;12.80;99.90;;;;;;5095596;28;20287;-49
2023/10/29 08:55:57;;;;;;;2.80;1.00;;;12.90;99.90;;;;;;5087618;28;20201;-52
2023/10/29 08:58:25;;;;;;;1.23;0.90;;;13.00;99.90;;;;;;5081042;27;20925;-47
2023/10/29 09:00:57;;;;;;;1.77;1.00;;;13.20;99.90;;;;;;5105432;27;20974;-51
2023/10/29 09:03:24;;;;;;;2.00;1.13;;;13.30;99.90;;;;;;5094133;28;20304;-49
2023/10/29 09:05:51;;;;;;;3.70;1.03;;;13.40;99.90;;;;;;5063796;28;20661;-54
2023/10/29 09:08:18;;;;;;;3.10;0.97;;;13.40;99.90;;;;;;5085941;28;20214;-48
2023/10/29 09:10:45;;;;;;;0.70;0.70;;;13.40;99.90;;;;;;5098804;28;20755;-49
2023/10/29 09:13:12;;;;;;;2.00;0.87;;;13.50;99.90;;;;;;5079967;28;20299;-50
2023/10/29 09:15:41;;;;;;;1.33;0.73;;;13.50;99.90;;;;;;5079262;28;21130;-51
2023/10/29 09:18:09;;;;;;;1.53;0.83;;;13.60;99.90;;;;;;5103247;27;20211;-48
2023/10/29 09:20:38;;;;;;;1.17;0.70;;;13.60;99.90;;;;;;5070896;28;20204;-47
2023/10/29 09:23:05;;;;;;;1.73;0.70;;;13.70;99.90;;;;;;5096945;27;20252;-46
2023/10/29 09:25:32;;;;;;;3.67;0.93;;;13.80;99.90;;;;;;5093622;28;20258;-50
2023/10/29 09:28:00;;;;;;;2.13;0.87;;;13.90;99.90;;;;;;5092168;28;20220;-49
2023/10/29 09:30:26;;;;;;;3.03;0.90;;;13.90;99.90;;;;;;5090849;28;20254;-53
2023/10/29 09:32:55;;;;;;;3.17;0.70;;;14.00;99.90;;;;;;5103072;28;20213;-47
2023/10/29 09:35:22;;;;;;;2.80;0.83;;;14.10;99.90;;;;;;5090641;27;20597;-53
2023/10/29 09:37:48;;;;;;;3.70;0.77;;;14.10;99.90;;;;;;5101131;28;20194;-47
2023/10/29 09:40:19;;;;;;;0.73;0.60;;;14.10;99.90;;;;;;5093034;28;20216;-50
2023/10/29 09:42:53;;;;;;;1.30;1.20;;;14.10;99.90;;;;;;5090039;28;22537;-46
2023/10/29 09:45:23;;;;;;;2.93;0.80;;;14.10;99.90;;;;;;5096068;28;20575;-53
2023/10/29 09:47:50;;;;;;;1.57;1.03;;;14.10;99.90;;;;;;5097399;28;20208;-49
2023/10/29 09:50:19;;;;;;;1.63;0.80;;;14.10;99.90;;;;;;5092446;28;20211;-54
2023/10/29 09:52:47;;;;;;;1.03;0.83;;;14.20;99.90;;;;;;5087837;28;20992;-46
2023/10/29 09:55:15;;;;;;;1.33;0.70;;;14.30;99.90;;;;;;5090990;28;20209;-53
2023/10/29 09:57:42;;;;;;;2.83;0.50;;;14.50;99.90;;;;;;5083121;28;20213;-52
2023/10/29 10:00:10;;;;;;;1.20;0.60;;;14.60;99.90;;;;;;5089807;28;20221;-46
2023/10/29 10:02:50;;;;;;;1.73;0.80;;;14.70;99.90;;;;;;5085373;28;20474;-46
2023/10/29 10:05:20;;;;;;;1.17;0.80;;;14.80;99.90;;;;;;5070033;28;21750;-45
2023/10/29 10:07:47;;;;;;;1.50;0.77;;;14.80;99.90;;;;;;5086904;28;20202;-47
2023/10/29 10:10:14;;;;;;;3.30;0.80;;;14.90;99.90;;;;;;5084487;28;20935;-46
2023/10/29 10:12:46;;;;;;;2.17;0.50;;;14.90;99.90;;;;;;5090102;28;20283;-47
2023/10/29 10:15:14;;;;;;;0.93;0.80;;;14.80;99.90;;;;;;5092416;28;20205;-46
2023/10/29 10:17:49;;;;;;;1.47;0.50;;;14.90;99.90;;;;;;5098939;28;20630;-45
2023/10/29 10:20:21;;;;;;;0.77;0.57;;;15.00;99.90;;;;;;5079657;28;20224;-48
2023/10/29 10:22:56;;;;;;;3.63;0.93;;;15.10;99.90;;;;;;5094993;28;20661;-49
2023/10/29 10:25:24;;;;;;;2.60;0.67;;;15.20;99.90;;;;;;5088616;28;20286;-48
2023/10/29 10:27:53;;;;;;;3.17;0.87;;;15.20;99.90;;;;;;5091579;28;20217;-52
2023/10/29 10:30:30;;;;;;;1.43;0.70;;;15.30;99.90;;;;;;5090744;28;20322;-46
2023/10/29 10:33:12;;;;;;;1.80;0.60;;;15.20;99.90;;;;;;5098446;28;20232;-51
2023/10/29 10:35:40;;;;;;;1.10;0.73;;;15.20;99.90;;;;;;5105096;28;20198;-49
2023/10/29 10:38:09;;;;;;;1.57;0.70;;;15.30;99.90;;;;;;5069167;28;20216;-53
2023/10/29 10:40:35;;;;;;;0.70;0.50;;;15.50;99.90;;;;;;5091934;28;20220;-48
2023/10/29 10:43:02;;;;;;;1.17;0.60;;;15.60;99.90;;;;;;5091069;28;20221;-47
2023/10/29 10:45:31;;;;;;;0.83;0.40;;;15.60;99.90;;;;;;5101383;27;20208;-51
2023/10/29 10:48:00;;;;;;;0.60;0.57;;;15.70;99.90;;;;;;5101631;28;20189;-46
2023/10/29 10:50:28;;;;;;;2.50;0.57;;;15.60;99.90;;;;;;5099066;28;20309;-49
2023/10/29 10:52:56;;;;;;;2.10;0.60;;;15.60;99.90;;;;;;5081664;27;20221;-45
2023/10/29 10:55:25;;;;;;;1.27;0.60;;;15.60;99.90;;;;;;5091937;27;20201;-50
2023/10/29 10:57:53;;;;;;;1.90;0.50;;;15.60;99.90;;;;;;5093816;28;20190;-47
2023/10/29 11:00:21;;;;;;;0.77;0.70;;;15.60;99.90;;;;;;5093219;27;20282;-51
2023/10/29 11:02:50;;;;;;;3.47;0.73;;;15.50;99.90;;;;;;5099059;27;20209;-48
2023/10/29 11:05:17;;;;;;;5.60;1.53;;;15.40;99.90;;;;;;5105890;27;20284;-48
2023/10/29 11:07:45;;;;;;;2.60;0.70;;;15.30;99.90;;;;;;5076578;27;20192;-48
2023/10/29 11:10:14;;;;;;;1.40;0.63;;;15.30;99.90;;;;;;5094570;28;20280;-50
2023/10/29 11:12:42;;;;;;;2.70;0.93;;;15.30;99.90;;;;;;5081366;27;20221;-46
2023/10/29 11:15:13;;;;;;;2.83;0.83;;;15.40;99.90;;;;;;5104861;28;20197;-50
2023/10/29 11:17:59;;;;;;;1.60;0.70;;;15.40;99.90;;;;;;5093597;28;20204;-46
2023/10/29 11:20:54;;;;;;;1.53;0.77;;;15.50;99.90;;;;;;5099423;28;20726;-52
2023/10/29 11:23:26;;;;;;;2.07;0.60;;;15.70;99.90;;;;;;5076098;27;20582;-49
2023/10/29 11:26:21;;;;;;;2.23;0.60;;;15.80;99.90;;;;;;5083476;27;20229;-52
2023/10/29 11:28:50;;;;;;;2.67;0.57;;;15.90;99.90;;;;;;5091201;28;20214;-47
2023/10/29 11:31:18;;;;;;;2.23;0.60;;;16.10;99.90;;;;;;5098852;28;20193;-53
2023/10/29 11:33:46;;;;;;;2.40;1.00;;;16.10;99.90;;;;;;5100142;28;20213;-52
2023/10/29 11:36:33;;;;;;;1.00;0.50;;;16.10;99.90;;;;;;5100417;28;20280;-52
2023/10/29 11:39:32;;;;;;;3.70;0.50;;;16.10;99.90;;;;;;5086444;27;20575;-49
2023/10/29 11:42:00;;;;;;;2.83;0.67;;;16.20;99.90;;;;;;5094148;28;20193;-52
2023/10/29 11:44:29;;;;;;;2.67;0.50;;;16.20;99.90;;;;;;5094264;27;20217;-54
2023/10/29 11:47:06;;;;;;;3.23;0.70;;;16.10;99.90;;;;;;5106848;27;20223;-48
2023/10/29 11:50:07;;;;;;;2.70;0.80;;;16.10;99.90;;;;;;5097186;27;20423;-47
2023/10/29 11:52:46;;;;;;;2.20;0.60;;;16.30;99.90;;;;;;5095861;28;20300;-49
2023/10/29 11:55:13;;;;;;;2.60;0.73;;;16.30;99.90;;;;;;5073359;27;20572;-50
2023/10/29 11:57:46;;;;;;;2.77;0.83;;;16.20;99.90;;;;;;5088474;27;20276;-53
2023/10/29 12:00:15;;;;;;;2.77;0.70;;;16.10;99.90;;;;;;5095804;28;20213;-54
2023/10/29 12:02:44;;;;;;;1.00;0.60;;;16.10;99.90;;;;;;5094262;28;20230;-48
2023/10/29 12:05:12;;;;;;;1.93;1.10;;;16.10;99.90;;;;;;5106166;27;20742;-52
2023/10/29 12:07:39;;;;;;;3.33;0.57;;;16.20;99.90;;;;;;5099420;27;20313;-47
2023/10/29 12:10:07;;;;;;;2.87;0.60;;;16.20;99.90;;;;;;5079152;28;20193;-47
2023/10/29 12:12:34;;;;;;;5.23;0.80;;;16.20;99.90;;;;;;5092328;28;20217;-47
2023/10/29 12:15:01;;;;;;;6.57;0.70;;;16.20;99.90;;;;;;5104828;28;20552;-49
2023/10/29 12:17:29;;;;;;;3.43;0.80;;;16.30;99.90;;;;;;5090708;28;20283;-47
2023/10/29 12:19:56;;;;;;;2.73;0.60;;;16.30;99.90;;;;;;5099214;27;20274;-49
2023/10/29 12:22:25;;;;;;;1.47;0.83;;;16.30;99.90;;;;;;5094210;27;20231;-52
2023/10/29 12:24:55;;;;;;;3.00;0.70;;;16.40;99.90;;;;;;5097940;28;20213;-50
2023/10/29 12:27:22;;;;;;;1.47;0.70;;;16.40;99.90;;;;;;5060588;28;20326;-52
2023/10/29 12:29:50;;;;;;;3.23;0.73;;;16.30;99.90;;;;;;5095566;28;20289;-49
2023/10/29 12:32:17;;;;;;;0.90;0.60;;;16.30;99.90;;;;;;5099781;27;20561;-54
2023/10/29 12:34:52;;;;;;;7.33;1.53;;;16.30;99.90;;;;;;5089685;27;20195;-47
2023/10/29 12:37:26;;;;;;;3.47;0.80;;;16.30;99.90;;;;;;5093475;28;20267;-53
2023/10/29 12:39:56;;;;;;;4.10;0.90;;;16.30;99.90;;;;;;5102495;27;20250;-48
2023/10/29 12:42:23;;;;;;;1.83;1.03;;;16.40;99.90;;;;;;5074700;27;20221;-51
2023/10/29 12:44:57;;;;;;;3.90;1.00;;;16.40;99.90;;;;;;5099575;27;20196;-48
2023/10/29 12:47:24;;;;;;;4.20;0.87;;;16.40;99.90;;;;;;5095093;27;20254;-53
2023/10/29 12:50:01;;;;;;;4.03;1.23;;;16.30;99.90;;;;;;5086692;28;20215;-48
2023/10/29 12:52:28;;;;;;;0.70;0.50;;;16.30;99.90;;;;;;5086102;28;20714;-53